Brookfield, Connecticut
Current Conditions -  °F | °C
As of 6:53 PM on Sunday 25 Jan 2015 (Local Time) from KDXR Reporting Station
Clear Clear  
Wind Chill: 23°   Ceiling: Unl
Heat Index: 28°   Visibility: 10mi
Dew Point:   Wind: 5mph
Humidity: 41%   Direction: 360°N
Pressure: 29.9"   Gusts: NA
Location:  41.48°N, 73.41°W
Report Text: KDXR 252353Z 36004KT 10SM CLR M02/M14 A2990 RMK AO2 SLP128 T10221139 10028 21028 53034
Loading
Personal Weather Stations






























Interactive Weather Map New forecast layout! Learn more

10-Day Weather Forecast

Advertisements
Track Severe Weather on mobile